Adams, New York
Current Conditions -  °F | °C
As of 1:05 PM on Tuesday 21 Oct 2014 (Local Time) from KART Reporting Station
Light Rain Light Rain  
Wind Chill: 53°   Ceiling: 1800
Heat Index: 53°   Visibility: 10mi
Dew Point: 47°   Wind: 12mph
Humidity: 80%   Direction: 30°NNE
Pressure: 29.9"   Gusts: NA
Location:  43.81°N, 76.02°W
Report Text: KART 211705Z AUTO 03010KT 10SM -RA BKN018 BKN034 OVC050 12/08 A2990 RMK AO2 P0000 T01170083
Loading
Personal Weather Stations






























Interactive Weather Map New forecast layout! Learn more

10-Day Weather Forecast

Advertisements
Track Severe Weather on mobile